createdAt,value
2018-10-17T00:02:19.703Z,17.43
2018-10-17T00:04:47.813Z,18.03
2018-10-17T00:07:16.111Z,16.70
2018-10-17T00:09:44.197Z,17.07
2018-10-17T00:12:12.333Z,16.27
2018-10-17T00:14:40.755Z,16.40
2018-10-17T00:17:09.514Z,17.00
2018-10-17T00:19:37.976Z,16.87
2018-10-17T00:22:06.419Z,17.17
2018-10-17T00:24:34.802Z,16.97
2018-10-17T00:27:02.945Z,17.30
2018-10-17T00:29:31.099Z,17.43
2018-10-17T00:31:59.242Z,17.07
2018-10-17T00:34:27.396Z,17.30
2018-10-17T00:36:55.537Z,16.63
2018-10-17T00:39:23.675Z,16.90
2018-10-17T00:41:51.822Z,17.40
2018-10-17T00:44:19.970Z,16.50
2018-10-17T00:46:48.115Z,17.43
2018-10-17T00:49:16.300Z,15.93
2018-10-17T00:51:44.417Z,16.30
2018-10-17T00:54:12.614Z,16.07
2018-10-17T00:56:40.781Z,16.97
2018-10-17T00:59:10.281Z,17.20
2018-10-17T01:01:38.790Z,16.53
2018-10-17T01:04:07.281Z,17.60
2018-10-17T01:06:35.966Z,16.90
2018-10-17T01:09:07.494Z,17.37
2018-10-17T01:11:36.102Z,16.57
2018-10-17T01:14:04.349Z,16.33
2018-10-17T01:16:32.562Z,17.50
2018-10-17T01:19:01.154Z,16.40
2018-10-17T01:21:29.278Z,15.90
2018-10-17T01:23:57.440Z,15.80
2018-10-17T01:26:25.578Z,15.50
2018-10-17T01:28:53.751Z,16.33
2018-10-17T01:31:21.901Z,16.93
2018-10-17T01:33:50.216Z,17.33
2018-10-17T01:36:18.358Z,16.00
2018-10-17T01:38:46.535Z,16.30
2018-10-17T01:41:14.745Z,16.47
2018-10-17T01:43:42.818Z,16.00
2018-10-17T01:46:10.979Z,15.80
2018-10-17T01:48:39.109Z,15.50
2018-10-17T01:51:07.262Z,15.50
2018-10-17T01:53:35.476Z,15.80
2018-10-17T01:56:03.607Z,15.97
2018-10-17T01:58:31.739Z,16.00
2018-10-17T02:00:59.906Z,16.30
2018-10-17T02:03:28.022Z,16.00
2018-10-17T02:05:56.166Z,17.57
2018-10-17T02:08:24.370Z,16.20
2018-10-17T02:10:52.520Z,14.37
2018-10-17T02:13:21.773Z,15.67
2018-10-17T02:15:51.501Z,15.73
2018-10-17T02:18:19.658Z,15.30
2018-10-17T02:20:47.891Z,15.23
2018-10-17T02:23:16.143Z,16.00
2018-10-17T02:25:44.245Z,14.10
2018-10-17T02:28:12.414Z,15.23
2018-10-17T02:30:40.803Z,15.43
2018-10-17T02:33:08.928Z,14.37
2018-10-17T02:35:37.058Z,14.60
2018-10-17T02:38:05.205Z,16.43
2018-10-17T02:40:33.342Z,15.50
2018-10-17T02:43:01.700Z,16.70
2018-10-17T02:45:29.833Z,15.37
2018-10-17T02:47:57.975Z,15.40
2018-10-17T02:50:26.115Z,15.97
2018-10-17T02:52:54.323Z,14.80
2018-10-17T02:55:22.396Z,15.10
2018-10-17T02:57:50.546Z,15.57
2018-10-17T03:00:18.682Z,15.10
2018-10-17T03:02:46.830Z,14.90
2018-10-17T03:05:15.032Z,15.87
2018-10-17T03:07:43.109Z,16.17
2018-10-17T03:10:11.253Z,14.30
2018-10-17T03:12:39.410Z,14.93
2018-10-17T03:15:08.105Z,15.50
2018-10-17T03:17:36.259Z,14.90
2018-10-17T03:20:05.512Z,15.40
2018-10-17T03:22:33.659Z,15.07
2018-10-17T03:25:01.904Z,15.60
2018-10-17T03:27:30.019Z,15.50
2018-10-17T03:29:58.147Z,15.23
2018-10-17T03:32:26.366Z,14.77
2018-10-17T03:34:54.511Z,14.10
2018-10-17T03:37:22.649Z,14.70
2018-10-17T03:39:50.784Z,14.50
2018-10-17T03:42:18.914Z,14.13
2018-10-17T03:44:47.092Z,15.13
2018-10-17T03:47:15.321Z,14.93
2018-10-17T03:49:43.518Z,14.67
2018-10-17T03:52:11.578Z,15.17
2018-10-17T03:54:39.809Z,14.47
2018-10-17T03:57:07.943Z,15.17
2018-10-17T03:59:36.188Z,14.50
2018-10-17T04:02:04.287Z,14.70
2018-10-17T04:04:32.477Z,14.37
2018-10-17T04:07:00.598Z,14.47
2018-10-17T04:09:28.719Z,14.80
2018-10-17T04:11:56.855Z,15.67
2018-10-17T04:14:25.015Z,15.07
2018-10-17T04:16:53.209Z,15.40
2018-10-17T04:19:21.366Z,14.47
2018-10-17T04:21:49.437Z,14.40
2018-10-17T04:24:17.579Z,14.00
2018-10-17T04:26:46.251Z,14.43
2018-10-17T04:29:14.422Z,14.23
2018-10-17T04:31:42.543Z,14.90
2018-10-17T04:34:10.696Z,14.53
2018-10-17T04:36:38.856Z,14.33
2018-10-17T04:39:08.434Z,14.30
2018-10-17T04:41:36.618Z,14.20
2018-10-17T04:44:05.503Z,14.20
2018-10-17T04:46:33.638Z,14.43
2018-10-17T04:49:01.805Z,14.67
2018-10-17T04:51:29.918Z,14.60
2018-10-17T04:53:58.082Z,14.63
2018-10-17T04:56:26.210Z,14.07
2018-10-17T04:58:54.379Z,14.77
2018-10-17T05:01:22.511Z,14.70
2018-10-17T05:03:50.647Z,14.30
2018-10-17T05:06:18.782Z,14.67
2018-10-17T05:08:46.948Z,13.20
2018-10-17T05:11:15.166Z,13.40
2018-10-17T05:13:43.274Z,13.43
2018-10-17T05:16:11.421Z,13.37
2018-10-17T05:18:39.553Z,13.50
2018-10-17T05:21:07.710Z,12.93
2018-10-17T05:23:35.842Z,13.90
2018-10-17T05:26:03.983Z,14.93
2018-10-17T05:28:32.134Z,14.07
2018-10-17T05:31:00.358Z,13.90
2018-10-17T05:33:28.427Z,14.13
2018-10-17T05:35:56.562Z,13.53
2018-10-17T05:38:24.727Z,15.30
2018-10-17T05:40:52.916Z,14.07
2018-10-17T05:43:21.031Z,15.37
2018-10-17T05:45:49.172Z,14.13
2018-10-17T05:48:17.323Z,13.50
2018-10-17T05:50:45.479Z,13.07
2018-10-17T05:53:13.737Z,13.90
2018-10-17T05:55:41.911Z,13.43
2018-10-17T05:58:10.013Z,14.27
2018-10-17T06:00:38.162Z,14.73
2018-10-17T06:03:06.431Z,14.40
2018-10-17T06:05:34.574Z,14.07
2018-10-17T06:08:03.016Z,14.77
2018-10-17T06:10:31.176Z,13.97
2018-10-17T06:12:59.383Z,14.27
2018-10-17T06:15:27.467Z,13.70
2018-10-17T06:17:55.607Z,14.87
2018-10-17T06:20:23.792Z,14.03
2018-10-17T06:22:51.927Z,14.23
2018-10-17T06:25:20.078Z,13.50
2018-10-17T06:27:48.218Z,14.37
2018-10-17T06:30:16.375Z,14.10
2018-10-17T06:32:44.505Z,14.20
2018-10-17T06:35:12.732Z,13.60
2018-10-17T06:37:40.798Z,13.80
2018-10-17T06:40:09.707Z,14.77
2018-10-17T06:42:37.875Z,13.77
2018-10-17T06:45:06.105Z,14.03
2018-10-17T06:47:34.254Z,13.70
2018-10-17T06:50:02.414Z,14.00
2018-10-17T06:52:30.569Z,13.97
2018-10-17T06:54:58.729Z,14.23
2018-10-17T06:57:26.864Z,14.20
2018-10-17T06:59:55.013Z,14.37
2018-10-17T07:02:23.231Z,13.93
2018-10-17T07:04:51.353Z,14.07
2018-10-17T07:07:19.477Z,15.37
2018-10-17T07:09:47.618Z,13.43
2018-10-17T07:12:15.755Z,13.87
2018-10-17T07:14:43.903Z,14.00
2018-10-17T07:17:12.059Z,15.40
2018-10-17T07:19:40.262Z,14.07
2018-10-17T07:22:08.405Z,14.07
2018-10-17T07:24:36.586Z,14.00
2018-10-17T07:27:05.361Z,14.83
2018-10-17T07:29:33.643Z,14.57
2018-10-17T07:32:01.674Z,13.70
2018-10-17T07:34:30.011Z,14.93
2018-10-17T07:36:58.162Z,13.70
2018-10-17T07:39:26.319Z,14.43
2018-10-17T07:41:54.540Z,13.97
2018-10-17T07:44:22.628Z,13.90
2018-10-17T07:46:50.779Z,14.77
2018-10-17T07:49:18.933Z,14.10
2018-10-17T07:51:47.098Z,13.50
2018-10-17T07:54:15.431Z,13.40
2018-10-17T07:56:43.426Z,13.60
2018-10-17T07:59:11.557Z,13.97
2018-10-17T08:01:39.712Z,13.50
2018-10-17T08:04:07.847Z,13.23
2018-10-17T08:06:36.072Z,14.17
2018-10-17T08:09:06.548Z,14.70
2018-10-17T08:11:34.707Z,12.73
2018-10-17T08:14:02.902Z,14.57
2018-10-17T08:16:31.003Z,13.83
2018-10-17T08:18:59.169Z,13.27
2018-10-17T08:21:27.407Z,13.87
2018-10-17T08:23:55.533Z,13.43
2018-10-17T08:26:23.635Z,13.83
2018-10-17T08:28:51.798Z,13.03
2018-10-17T08:31:19.933Z,13.27
2018-10-17T08:33:48.115Z,13.87
2018-10-17T08:36:16.386Z,13.20
2018-10-17T08:38:44.395Z,13.27
2018-10-17T08:41:12.635Z,12.33
2018-10-17T08:43:40.678Z,13.47
2018-10-17T08:46:08.833Z,13.13
2018-10-17T08:48:37.026Z,12.13
2018-10-17T08:51:06.342Z,13.37
2018-10-17T08:53:34.471Z,11.90
2018-10-17T08:56:02.716Z,12.70
2018-10-17T08:58:30.851Z,12.60
2018-10-17T09:00:58.987Z,11.90
2018-10-17T09:03:27.127Z,11.90
2018-10-17T09:05:55.290Z,12.10
2018-10-17T09:08:23.444Z,12.77
2018-10-17T09:10:51.555Z,10.20
2018-10-17T09:13:19.724Z,11.50
2018-10-17T09:15:47.866Z,10.80
2018-10-17T09:18:16.099Z,11.33
2018-10-17T09:20:44.271Z,11.70
2018-10-17T09:23:12.283Z,12.43
2018-10-17T09:25:40.501Z,11.47
2018-10-17T09:28:08.687Z,11.83
2018-10-17T09:30:36.835Z,12.23
2018-10-17T09:33:04.953Z,14.10
2018-10-17T09:35:33.162Z,12.80
2018-10-17T09:38:01.279Z,12.20
2018-10-17T09:40:29.425Z,13.27
2018-10-17T09:42:57.555Z,10.90
2018-10-17T09:45:25.703Z,10.40
2018-10-17T09:47:53.894Z,14.23
2018-10-17T09:50:21.986Z,14.07
2018-10-17T09:52:50.110Z,13.27
2018-10-17T09:55:18.262Z,15.03
2018-10-17T09:57:46.411Z,13.23
2018-10-17T10:00:20.125Z,15.20
2018-10-17T10:02:48.182Z,14.83
2018-10-17T10:05:16.334Z,15.30
2018-10-17T10:07:44.478Z,14.03
2018-10-17T10:10:12.658Z,14.77
2018-10-17T10:12:40.783Z,12.80
2018-10-17T10:15:08.988Z,14.10
2018-10-17T10:17:37.262Z,15.20
2018-10-17T10:20:05.396Z,14.07
2018-10-17T10:22:33.551Z,13.93
2018-10-17T10:25:01.725Z,14.00
2018-10-17T10:27:29.866Z,13.87
2018-10-17T10:29:58.043Z,13.80
2018-10-17T10:32:26.175Z,14.03
2018-10-17T10:34:54.342Z,15.00
2018-10-17T10:37:22.522Z,13.33
2018-10-17T10:39:50.663Z,13.57
2018-10-17T10:42:18.815Z,12.77
2018-10-17T10:44:47.225Z,14.40
2018-10-17T10:47:15.327Z,14.70
2018-10-17T10:49:43.558Z,14.70
2018-10-17T10:52:12.025Z,14.50
2018-10-17T10:54:40.162Z,13.37
2018-10-17T10:57:08.318Z,13.07
2018-10-17T10:59:36.559Z,13.37
2018-10-17T11:02:04.675Z,11.97
2018-10-17T11:04:32.869Z,12.73
2018-10-17T11:07:00.966Z,14.23
2018-10-17T11:09:29.117Z,12.57
2018-10-17T11:11:57.259Z,13.50
2018-10-17T11:14:25.454Z,13.13
2018-10-17T11:16:53.580Z,12.67
2018-10-17T11:19:21.748Z,12.67
2018-10-17T11:21:50.013Z,14.70
2018-10-17T11:24:18.130Z,10.97
2018-10-17T11:26:46.283Z,13.07
2018-10-17T11:29:14.497Z,15.10
2018-10-17T11:31:42.593Z,12.40
2018-10-17T11:34:10.722Z,13.93
2018-10-17T11:36:38.875Z,14.23
2018-10-17T11:39:08.421Z,12.60
2018-10-17T11:41:36.670Z,13.20
2018-10-17T11:44:04.966Z,14.37
2018-10-17T11:46:33.122Z,14.43
2018-10-17T11:49:01.266Z,14.03
2018-10-17T11:51:29.421Z,14.73
2018-10-17T11:53:57.576Z,14.27
2018-10-17T11:56:25.710Z,15.17
2018-10-17T11:58:53.893Z,15.10
2018-10-17T12:01:22.010Z,14.53
2018-10-17T12:03:50.391Z,14.70
2018-10-17T12:06:18.475Z,16.60
2018-10-17T12:08:46.531Z,16.23
2018-10-17T12:11:14.758Z,14.80
2018-10-17T12:13:42.868Z,16.10
2018-10-17T12:16:11.083Z,12.73
2018-10-17T12:18:39.226Z,14.33
2018-10-17T12:21:07.436Z,18.57
2018-10-17T12:23:35.567Z,16.40
2018-10-17T12:26:03.730Z,16.17
2018-10-17T12:28:32.040Z,15.50
2018-10-17T12:31:00.131Z,16.27
2018-10-17T12:33:28.291Z,15.80
2018-10-17T12:35:56.459Z,16.93
2018-10-17T12:38:24.612Z,16.70
2018-10-17T12:40:52.976Z,16.90
2018-10-17T12:43:20.911Z,16.53
2018-10-17T12:45:49.187Z,16.30
2018-10-17T12:48:17.227Z,16.93
2018-10-17T12:50:45.366Z,16.87
2018-10-17T12:53:13.634Z,17.07
2018-10-17T12:55:41.664Z,14.60
2018-10-17T12:58:09.819Z,10.93
2018-10-17T13:00:37.980Z,15.93
2018-10-17T13:03:06.290Z,14.93
2018-10-17T13:05:34.453Z,14.83
2018-10-17T13:08:03.130Z,16.03
2018-10-17T13:10:31.286Z,14.40
2018-10-17T13:12:59.474Z,15.27
2018-10-17T13:15:27.607Z,15.20
2018-10-17T13:17:55.761Z,15.33
2018-10-17T13:20:23.933Z,17.63
2018-10-17T13:22:52.143Z,11.53
2018-10-17T13:25:20.296Z,15.00
2018-10-17T13:27:48.472Z,15.37
2018-10-17T13:30:16.658Z,15.43
2018-10-17T13:32:44.844Z,14.33
2018-10-17T13:35:13.112Z,13.90
2018-10-17T13:37:41.285Z,11.93
2018-10-17T13:40:09.729Z,13.20
2018-10-17T13:42:37.926Z,11.97
2018-10-17T13:45:06.433Z,13.13
2018-10-17T13:47:34.575Z,14.60
2018-10-17T13:50:02.718Z,15.47
2018-10-17T13:52:30.874Z,13.97
2018-10-17T13:54:59.064Z,16.77
2018-10-17T13:57:27.324Z,15.10
2018-10-17T13:59:55.451Z,15.40
2018-10-17T14:02:23.936Z,14.30
2018-10-17T14:04:52.091Z,16.07
2018-10-17T14:07:20.365Z,14.77
2018-10-17T14:09:48.370Z,15.60
2018-10-17T14:12:16.591Z,15.33
2018-10-17T14:14:44.704Z,16.07
2018-10-17T14:17:12.871Z,16.40
2018-10-17T14:19:41.014Z,18.90
2018-10-17T14:22:09.887Z,16.13
2018-10-17T14:24:38.171Z,15.37
2018-10-17T14:27:06.947Z,15.97
2018-10-17T14:29:35.080Z,17.17
2018-10-17T14:32:03.275Z,17.23
2018-10-17T14:34:31.474Z,18.07
2018-10-17T14:36:59.710Z,16.00
2018-10-17T14:39:27.954Z,16.13
2018-10-17T14:41:56.050Z,13.23
2018-10-17T14:44:24.231Z,14.93
2018-10-17T14:46:52.363Z,15.17
2018-10-17T14:49:20.518Z,14.67
2018-10-17T14:51:48.706Z,15.37
2018-10-17T14:54:16.954Z,19.20
2018-10-17T14:56:45.260Z,16.30
2018-10-17T14:59:13.639Z,13.23
2018-10-17T15:01:41.805Z,24.20
2018-10-17T15:04:10.087Z,12.90
2018-10-17T15:06:38.245Z,20.63
2018-10-17T15:09:07.505Z,17.77
2018-10-17T15:11:35.919Z,21.20
2018-10-17T15:14:03.982Z,15.60
2018-10-17T15:16:32.125Z,17.87
2018-10-17T15:19:00.262Z,24.50
2018-10-17T15:21:28.527Z,14.67
2018-10-17T15:23:56.709Z,24.50
2018-10-17T15:26:24.896Z,15.90
2018-10-17T15:28:53.077Z,16.00
2018-10-17T15:31:21.376Z,19.40
2018-10-17T15:33:49.401Z,20.00
2018-10-17T15:36:17.621Z,24.90
2018-10-17T15:38:45.708Z,23.53
2018-10-17T15:41:13.885Z,22.57
2018-10-17T15:43:42.091Z,23.00
2018-10-17T15:46:10.218Z,22.30
2018-10-17T15:48:38.350Z,21.70
2018-10-17T15:51:06.637Z,23.27
2018-10-17T15:53:34.737Z,22.50
2018-10-17T15:56:02.878Z,22.30
2018-10-17T15:58:31.030Z,23.20
2018-10-17T16:00:59.229Z,22.70
2018-10-17T16:03:27.463Z,21.37
2018-10-17T16:05:55.603Z,21.37
2018-10-17T16:08:23.749Z,21.73
2018-10-17T16:10:52.511Z,23.13
2018-10-17T16:13:20.675Z,24.50
2018-10-17T16:15:48.855Z,23.97
2018-10-17T16:18:17.098Z,23.00
2018-10-17T16:20:45.249Z,22.43
2018-10-17T16:23:13.442Z,24.43
2018-10-17T16:25:41.563Z,23.93
2018-10-17T16:28:09.718Z,24.50
2018-10-17T16:30:37.900Z,24.03
2018-10-17T16:33:06.021Z,23.13
2018-10-17T16:35:34.150Z,25.00
2018-10-17T16:38:02.362Z,23.73
2018-10-17T16:40:30.445Z,22.50
2018-10-17T16:42:58.647Z,22.30
2018-10-17T16:45:26.830Z,23.30
2018-10-17T16:47:55.017Z,23.10
2018-10-17T16:50:23.210Z,22.90
2018-10-17T16:52:51.239Z,24.13
2018-10-17T16:55:19.411Z,21.93
2018-10-17T16:57:47.619Z,24.37
2018-10-17T17:00:15.814Z,23.10
2018-10-17T17:02:43.919Z,22.53
2018-10-17T17:05:13.510Z,22.80
2018-10-17T17:07:41.985Z,24.07
2018-10-17T17:10:11.198Z,24.10
2018-10-17T17:12:39.612Z,24.50
2018-10-17T17:15:07.791Z,22.73
2018-10-17T17:17:35.967Z,23.50
2018-10-17T17:20:04.834Z,23.17
2018-10-17T17:22:33.060Z,23.90
2018-10-17T17:25:01.147Z,23.93
2018-10-17T17:27:29.311Z,25.33
2018-10-17T17:29:57.569Z,25.00
2018-10-17T17:32:25.751Z,26.70
2018-10-17T17:34:53.890Z,25.77
2018-10-17T17:37:22.059Z,26.73
2018-10-17T17:39:50.216Z,28.20
2018-10-17T17:42:18.394Z,27.20
2018-10-17T17:44:46.543Z,27.93
2018-10-17T17:47:14.707Z,28.47
2018-10-17T17:49:42.923Z,29.77
2018-10-17T17:52:11.209Z,28.50
2018-10-17T17:54:39.313Z,30.27
2018-10-17T17:57:07.903Z,30.53
2018-10-17T17:59:36.590Z,31.17
2018-10-17T18:02:05.152Z,31.33
2018-10-17T18:04:33.350Z,32.57
2018-10-17T18:07:01.766Z,32.30
2018-10-17T18:09:29.967Z,31.37
2018-10-17T18:11:58.127Z,31.63
2018-10-17T18:14:26.411Z,33.83
2018-10-17T18:16:54.543Z,33.47
2018-10-17T18:19:22.747Z,35.30
2018-10-17T18:21:50.960Z,33.70
2018-10-17T18:24:19.124Z,34.77
2018-10-17T18:26:47.505Z,34.43
2018-10-17T18:29:15.714Z,36.33
2018-10-17T18:31:44.035Z,36.57
2018-10-17T18:34:12.299Z,35.90
2018-10-17T18:36:40.362Z,35.50
2018-10-17T18:39:08.795Z,35.30
2018-10-17T18:41:37.065Z,35.47
2018-10-17T18:44:05.386Z,35.40
2018-10-17T18:46:33.604Z,36.37
2018-10-17T18:49:02.020Z,33.47
2018-10-17T18:51:30.183Z,36.17
2018-10-17T18:53:58.363Z,35.97
2018-10-17T18:56:26.623Z,35.50
2018-10-17T18:58:54.795Z,37.90
2018-10-17T19:01:22.960Z,34.97
2018-10-17T19:03:51.126Z,36.67
2018-10-17T19:06:19.334Z,36.60
2018-10-17T19:08:47.543Z,35.47
2018-10-17T19:11:15.999Z,35.10
2018-10-17T19:13:44.213Z,37.70
2018-10-17T19:16:12.424Z,37.20
2018-10-17T19:18:40.554Z,33.63
2018-10-17T19:21:08.806Z,32.33
2018-10-17T19:23:37.064Z,35.33
2018-10-17T19:26:05.283Z,36.57
2018-10-17T19:28:33.422Z,36.47
2018-10-17T19:31:01.563Z,35.40
2018-10-17T19:33:29.769Z,35.97
2018-10-17T19:35:57.961Z,36.50
2018-10-17T19:38:26.079Z,33.87
2018-10-17T19:40:54.294Z,33.63
2018-10-17T19:43:22.444Z,34.13
2018-10-17T19:45:50.625Z,27.77
2018-10-17T19:48:18.906Z,33.17
2018-10-17T19:50:47.038Z,35.20
2018-10-17T19:53:15.269Z,32.13
2018-10-17T19:55:43.431Z,32.97
2018-10-17T19:58:11.595Z,33.87
2018-10-17T20:00:39.774Z,31.43
2018-10-17T20:03:07.988Z,33.60
2018-10-17T20:05:36.130Z,32.30
2018-10-17T20:08:04.271Z,31.27
2018-10-17T20:10:32.435Z,34.00
2018-10-17T20:13:00.576Z,32.47
2018-10-17T20:15:28.862Z,33.13
2018-10-17T20:17:57.039Z,33.60
2018-10-17T20:20:25.199Z,31.90
2018-10-17T20:22:53.375Z,33.60
2018-10-17T20:25:21.517Z,32.70
2018-10-17T20:27:49.658Z,33.37
2018-10-17T20:30:17.829Z,33.27
2018-10-17T20:32:45.982Z,31.60
2018-10-17T20:35:14.271Z,31.77
2018-10-17T20:37:42.347Z,31.73
2018-10-17T20:40:10.569Z,33.67
2018-10-17T20:42:38.757Z,33.77
2018-10-17T20:45:07.306Z,31.57
2018-10-17T20:47:35.438Z,31.40
2018-10-17T20:50:03.624Z,31.77
2018-10-17T20:52:31.934Z,31.00
2018-10-17T20:55:00.014Z,31.57
2018-10-17T20:57:28.174Z,28.80
2018-10-17T20:59:56.341Z,30.37
2018-10-17T21:02:24.520Z,32.70
2018-10-17T21:04:52.637Z,33.40
2018-10-17T21:07:20.798Z,32.03
2018-10-17T21:09:48.982Z,31.40
2018-10-17T21:12:17.126Z,34.20
2018-10-17T21:14:45.266Z,34.17
2018-10-17T21:17:13.511Z,33.00
2018-10-17T21:19:41.649Z,33.27
2018-10-17T21:22:09.789Z,33.23
2018-10-17T21:24:37.935Z,32.80
2018-10-17T21:27:06.076Z,31.97
2018-10-17T21:29:34.218Z,30.57
2018-10-17T21:32:02.429Z,32.33
2018-10-17T21:34:30.615Z,30.30
2018-10-17T21:36:58.753Z,29.80
2018-10-17T21:39:26.944Z,31.17
2018-10-17T21:41:55.104Z,31.40
2018-10-17T21:44:23.254Z,30.87
2018-10-17T21:46:51.427Z,30.17
2018-10-17T21:49:19.618Z,30.73
2018-10-17T21:51:47.766Z,30.70
2018-10-17T21:54:15.915Z,29.90
2018-10-17T21:56:44.082Z,29.37
2018-10-17T21:59:12.260Z,31.73
2018-10-17T22:01:40.435Z,29.87
2018-10-17T22:04:08.601Z,29.70
2018-10-17T22:06:36.735Z,30.63
2018-10-17T22:09:07.951Z,29.63
2018-10-17T22:11:36.094Z,28.40
2018-10-17T22:14:04.400Z,30.90
2018-10-17T22:16:37.862Z,29.83
2018-10-17T22:19:06.187Z,29.97
2018-10-17T22:21:34.208Z,29.10
2018-10-17T22:24:02.377Z,29.47
2018-10-17T22:26:30.540Z,26.73
2018-10-17T22:28:58.692Z,29.87
2018-10-17T22:31:26.888Z,28.77
2018-10-17T22:33:55.043Z,27.63
2018-10-17T22:36:23.243Z,26.97
2018-10-17T22:38:51.430Z,28.83
2018-10-17T22:41:19.623Z,29.37
2018-10-17T22:43:48.662Z,27.67
2018-10-17T22:46:16.803Z,27.73
2018-10-17T22:48:44.992Z,27.17
2018-10-17T22:51:13.155Z,27.27
2018-10-17T22:53:41.286Z,28.60
2018-10-17T22:56:09.450Z,27.93
2018-10-17T22:58:37.604Z,27.97
2018-10-17T23:01:06.319Z,29.27
2018-10-17T23:03:34.459Z,28.13
2018-10-17T23:06:02.631Z,27.80
2018-10-17T23:08:30.785Z,28.70
2018-10-17T23:10:58.918Z,29.13
2018-10-17T23:13:27.067Z,27.70
2018-10-17T23:15:55.207Z,28.47
2018-10-17T23:18:23.354Z,28.27
2018-10-17T23:20:51.550Z,29.50
2018-10-17T23:23:19.790Z,29.93
2018-10-17T23:25:47.927Z,29.07
2018-10-17T23:28:16.326Z,29.13
2018-10-17T23:30:44.501Z,30.13
2018-10-17T23:33:12.659Z,30.73
2018-10-17T23:35:40.831Z,28.67
2018-10-17T23:38:09.048Z,28.87
2018-10-17T23:40:37.186Z,30.20
2018-10-17T23:43:06.166Z,29.87
2018-10-17T23:45:34.343Z,29.40
2018-10-17T23:48:02.588Z,31.37
2018-10-17T23:50:30.650Z,28.07
2018-10-17T23:52:58.830Z,29.07
2018-10-17T23:55:26.980Z,27.97
2018-10-17T23:57:55.131Z,27.90
